Cahone, CO

10:03 PM MDT on August 20, 2014 (GMT -0600)
Cahone (2.5 Miles NNE) | Change Station
CLOSE
Current Station
Personal Weather Station
Location: Cahone, CO
Elevation: 6870 ft
Nearby Weather Stations

Elev 6870 ft 37.69 °N, 108.80 °W | Updated 33 seconds ago

Clear
Clear
60.4 °F
Feels Like 60.4 °F
N
1.0
Wind Variable Wind from NE
Gusts 2.0 mph

Today
High -- | Low -- °F
--% Chance of Precip.
Yesterday
High -- | Low -- °F
Precip. -- in
6:35 AM 8:01 PM
Waning Crescent, 17% visible
Pressure 29.93 in
Visibility 10.0 miles
Clouds Clear
Dew Point 43 °F
Humidity 52%
Rainfall 0.00 in
Snow Depth Not available.
UV 0 out of 12
Pollen 5.60 out of 12
Air Quality Not available.
Flu Activity Not available.
METAR KCEZ 210353Z AUTO 29003KT 10SM CLR 18/07 A3014 RMK AO2 SLP133 T01780067 $

More Conditions Fewer Conditions

Pressure 29.93 in
Visibility 10.0 miles
Clouds Clear
Dew Point 43 °F
Humidity 52%
Rainfall 0.00 in
Snow Depth Not available.
UV 0 out of 12
Pollen 5.60 out of 12
Air Quality Not available.
Flu Activity Not available.
METAR KCEZ 210353Z AUTO 29003KT 10SM CLR 18/07 A3014 RMK AO2 SLP133 T01780067 $

More Conditions Fewer Conditions

10-Day Weather Forecast

Almanac

Astronomy

Aug. 20, 2014 Rise Set
Actual Time 6:35 AM MDT 8:01 PM MDT
Civil Twilight 6:07 AM MDT 8:28 PM MDT
Nautical Twilight 5:34 AM MDT 9:01 PM MDT
Astronomical Twilight 4:59 AM MDT 9:36 PM MDT
Moon 2:19 AM MDT (8/20) 4:46 PM MDT (8/20)
Length of Visible Light 14h 21m
Length of Day
13h 26m
Tomorrow will be 2m 12s shorter.
Waning Crescent, 17% of the Moon is Illuminated
Aug 21
Waning Crescent
Aug 25
New
Sep 2
First Quarter
Sep 8
Full
Sep 15
Last Quarter

Today's Extremes

State Highs State Lows

Community

WunderPhotos

Upload Photos

1,745,851 photos uploaded!

Nearby

Snow Depth

Station Depth Elevation
Lone Cone 0 in 9600 ft
Sharkstooth 0 in 10720 ft
El Diente Peak 1 in 10200 ft
Columbus Basin 0 in 10785 ft
Lizard Head Pass 0 in 10200 ft

Earthquake Activity

City Distance Mag. Time & Date
No recent earthquake activity has been reported nearby.
Minimum magnitude displayed is 2.5.

Coastal Water Temperatures

Place Temperature
No Stations Reporting

Nearby Weather Stations